sensor_id;sensor_type;location;lat;lon;timestamp;P1;durP1;ratioP1;P2;durP2;ratioP2
42000;SDS011;27689;48.390;10.856;2024-02-23T00:00:42;0.40;;;0.30;;
42000;SDS011;27689;48.390;10.856;2024-02-23T00:03:26;0.38;;;0.30;;
42000;SDS011;27689;48.390;10.856;2024-02-23T00:06:10;0.30;;;0.20;;
42000;SDS011;27689;48.390;10.856;2024-02-23T00:08:54;0.50;;;0.30;;
42000;SDS011;27689;48.390;10.856;2024-02-23T00:11:41;1.55;;;0.30;;
42000;SDS011;27689;48.390;10.856;2024-02-23T00:14:28;0.85;;;0.30;;
42000;SDS011;27689;48.390;10.856;2024-02-23T00:17:14;0.22;;;0.22;;
42000;SDS011;27689;48.390;10.856;2024-02-23T00:22:43;0.55;;;0.30;;
42000;SDS011;27689;48.390;10.856;2024-02-23T00:25:27;0.55;;;0.40;;
42000;SDS011;27689;48.390;10.856;2024-02-23T00:28:11;0.50;;;0.13;;
42000;SDS011;27689;48.390;10.856;2024-02-23T00:30:55;0.20;;;0.20;;
42000;SDS011;27689;48.390;10.856;2024-02-23T00:33:39;0.63;;;0.20;;
42000;SDS011;27689;48.390;10.856;2024-02-23T00:36:25;0.73;;;0.40;;
42000;SDS011;27689;48.390;10.856;2024-02-23T00:39:09;0.80;;;0.22;;
42000;SDS011;27689;48.390;10.856;2024-02-23T00:41:53;0.52;;;0.30;;
42000;SDS011;27689;48.390;10.856;2024-02-23T00:44:37;0.40;;;0.30;;
42000;SDS011;27689;48.390;10.856;2024-02-23T00:47:21;1.43;;;0.60;;
42000;SDS011;27689;48.390;10.856;2024-02-23T00:50:06;1.75;;;0.50;;
42000;SDS011;27689;48.390;10.856;2024-02-23T00:52:50;0.60;;;0.30;;
42000;SDS011;27689;48.390;10.856;2024-02-23T00:58:18;1.00;;;0.47;;
42000;SDS011;27689;48.390;10.856;2024-02-23T01:01:02;1.50;;;0.65;;
42000;SDS011;27689;48.390;10.856;2024-02-23T01:03:47;0.30;;;0.30;;
42000;SDS011;27689;48.390;10.856;2024-02-23T01:06:31;1.20;;;0.30;;
42000;SDS011;27689;48.390;10.856;2024-02-23T01:09:15;1.42;;;0.60;;
42000;SDS011;27689;48.390;10.856;2024-02-23T01:12:04;1.48;;;0.30;;
42000;SDS011;27689;48.390;10.856;2024-02-23T01:14:47;1.30;;;0.20;;
42000;SDS011;27689;48.390;10.856;2024-02-23T01:17:32;0.98;;;0.40;;
42000;SDS011;27689;48.390;10.856;2024-02-23T01:20:16;1.10;;;0.40;;
42000;SDS011;27689;48.390;10.856;2024-02-23T01:23:00;0.22;;;0.20;;
42000;SDS011;27689;48.390;10.856;2024-02-23T01:25:44;0.83;;;0.30;;
42000;SDS011;27689;48.390;10.856;2024-02-23T01:28:29;0.20;;;0.20;;
42000;SDS011;27689;48.390;10.856;2024-02-23T01:31:12;2.30;;;0.40;;
42000;SDS011;27689;48.390;10.856;2024-02-23T01:33:57;3.10;;;0.25;;
42000;SDS011;27689;48.390;10.856;2024-02-23T01:36:41;0.90;;;0.47;;
42000;SDS011;27689;48.390;10.856;2024-02-23T01:39:25;3.10;;;0.30;;
42000;SDS011;27689;48.390;10.856;2024-02-23T01:42:09;0.40;;;0.20;;
42000;SDS011;27689;48.390;10.856;2024-02-23T01:44:53;1.52;;;0.40;;
42000;SDS011;27689;48.390;10.856;2024-02-23T01:47:39;0.82;;;0.30;;
42000;SDS011;27689;48.390;10.856;2024-02-23T01:50:25;0.77;;;0.35;;
42000;SDS011;27689;48.390;10.856;2024-02-23T01:53:10;1.80;;;0.30;;
42000;SDS011;27689;48.390;10.856;2024-02-23T01:55:56;2.50;;;0.40;;
42000;SDS011;27689;48.390;10.856;2024-02-23T01:58:43;1.10;;;0.20;;
42000;SDS011;27689;48.390;10.856;2024-02-23T02:01:31;0.22;;;0.22;;
42000;SDS011;27689;48.390;10.856;2024-02-23T02:04:15;0.90;;;0.20;;
42000;SDS011;27689;48.390;10.856;2024-02-23T02:06:59;0.20;;;0.20;;
42000;SDS011;27689;48.390;10.856;2024-02-23T02:09:44;0.10;;;0.10;;
42000;SDS011;27689;48.390;10.856;2024-02-23T02:12:28;0.10;;;0.10;;
42000;SDS011;27689;48.390;10.856;2024-02-23T02:15:12;0.20;;;0.13;;
42000;SDS011;27689;48.390;10.856;2024-02-23T02:17:56;0.77;;;0.20;;
42000;SDS011;27689;48.390;10.856;2024-02-23T02:20:40;0.30;;;0.30;;
42000;SDS011;27689;48.390;10.856;2024-02-23T02:23:36;0.38;;;0.20;;
42000;SDS011;27689;48.390;10.856;2024-02-23T02:26:21;0.20;;;0.20;;
42000;SDS011;27689;48.390;10.856;2024-02-23T02:29:05;0.20;;;0.20;;
42000;SDS011;27689;48.390;10.856;2024-02-23T02:31:49;0.20;;;0.20;;
42000;SDS011;27689;48.390;10.856;2024-02-23T02:34:32;0.35;;;0.20;;
42000;SDS011;27689;48.390;10.856;2024-02-23T02:37:16;0.82;;;0.20;;
42000;SDS011;27689;48.390;10.856;2024-02-23T02:40:00;0.20;;;0.20;;
42000;SDS011;27689;48.390;10.856;2024-02-23T02:42:44;0.20;;;0.20;;
42000;SDS011;27689;48.390;10.856;2024-02-23T02:45:28;0.20;;;0.20;;
42000;SDS011;27689;48.390;10.856;2024-02-23T02:48:12;0.80;;;0.30;;
42000;SDS011;27689;48.390;10.856;2024-02-23T02:50:56;0.20;;;0.20;;
42000;SDS011;27689;48.390;10.856;2024-02-23T02:53:41;0.82;;;0.40;;
42000;SDS011;27689;48.390;10.856;2024-02-23T02:56:24;0.30;;;0.30;;
42000;SDS011;27689;48.390;10.856;2024-02-23T02:59:09;0.20;;;0.20;;
42000;SDS011;27689;48.390;10.856;2024-02-23T03:01:53;0.25;;;0.20;;
42000;SDS011;27689;48.390;10.856;2024-02-23T03:04:37;0.20;;;0.20;;
42000;SDS011;27689;48.390;10.856;2024-02-23T03:07:21;0.47;;;0.40;;
42000;SDS011;27689;48.390;10.856;2024-02-23T03:10:05;0.40;;;0.32;;
42000;SDS011;27689;48.390;10.856;2024-02-23T03:12:49;0.30;;;0.30;;
42000;SDS011;27689;48.390;10.856;2024-02-23T03:15:33;0.20;;;0.20;;
42000;SDS011;27689;48.390;10.856;2024-02-23T03:18:17;0.55;;;0.30;;
42000;SDS011;27689;48.390;10.856;2024-02-23T03:21:01;0.20;;;0.20;;
42000;SDS011;27689;48.390;10.856;2024-02-23T03:23:45;0.10;;;0.10;;
42000;SDS011;27689;48.390;10.856;2024-02-23T03:26:29;0.52;;;0.30;;
42000;SDS011;27689;48.390;10.856;2024-02-23T03:29:13;0.22;;;0.20;;
42000;SDS011;27689;48.390;10.856;2024-02-23T03:31:57;0.45;;;0.30;;
42000;SDS011;27689;48.390;10.856;2024-02-23T03:34:41;0.20;;;0.20;;
42000;SDS011;27689;48.390;10.856;2024-02-23T03:37:25;0.75;;;0.30;;
42000;SDS011;27689;48.390;10.856;2024-02-23T03:40:09;0.20;;;0.20;;
42000;SDS011;27689;48.390;10.856;2024-02-23T03:42:54;0.20;;;0.20;;
42000;SDS011;27689;48.390;10.856;2024-02-23T03:45:38;0.20;;;0.20;;
42000;SDS011;27689;48.390;10.856;2024-02-23T03:48:22;0.55;;;0.20;;
42000;SDS011;27689;48.390;10.856;2024-02-23T03:51:06;0.20;;;0.20;;
42000;SDS011;27689;48.390;10.856;2024-02-23T03:53:52;0.20;;;0.20;;
42000;SDS011;27689;48.390;10.856;2024-02-23T03:56:42;0.20;;;0.20;;
42000;SDS011;27689;48.390;10.856;2024-02-23T03:59:26;0.20;;;0.20;;
42000;SDS011;27689;48.390;10.856;2024-02-23T04:02:10;0.82;;;0.38;;
42000;SDS011;27689;48.390;10.856;2024-02-23T04:04:54;1.25;;;0.40;;
42000;SDS011;27689;48.390;10.856;2024-02-23T04:07:38;0.17;;;0.17;;
42000;SDS011;27689;48.390;10.856;2024-02-23T04:10:21;0.15;;;0.15;;
42000;SDS011;27689;48.390;10.856;2024-02-23T04:13:06;0.20;;;0.20;;
42000;SDS011;27689;48.390;10.856;2024-02-23T04:15:49;0.60;;;0.28;;
42000;SDS011;27689;48.390;10.856;2024-02-23T04:18:33;1.50;;;0.30;;
42000;SDS011;27689;48.390;10.856;2024-02-23T04:21:17;0.77;;;0.30;;
42000;SDS011;27689;48.390;10.856;2024-02-23T04:24:01;0.63;;;0.30;;
42000;SDS011;27689;48.390;10.856;2024-02-23T04:26:45;0.20;;;0.20;;
42000;SDS011;27689;48.390;10.856;2024-02-23T04:29:29;1.00;;;0.32;;
42000;SDS011;27689;48.390;10.856;2024-02-23T04:32:13;0.20;;;0.20;;
42000;SDS011;27689;48.390;10.856;2024-02-23T04:37:45;0.85;;;0.30;;
42000;SDS011;27689;48.390;10.856;2024-02-23T04:40:29;1.35;;;0.30;;
42000;SDS011;27689;48.390;10.856;2024-02-23T04:43:13;0.65;;;0.30;;
42000;SDS011;27689;48.390;10.856;2024-02-23T04:45:57;0.77;;;0.40;;
42000;SDS011;27689;48.390;10.856;2024-02-23T04:48:41;0.45;;;0.30;;
42000;SDS011;27689;48.390;10.856;2024-02-23T04:51:25;0.52;;;0.40;;
42000;SDS011;27689;48.390;10.856;2024-02-23T04:54:09;1.48;;;0.40;;
42000;SDS011;27689;48.390;10.856;2024-02-23T04:56:53;0.30;;;0.30;;
42000;SDS011;27689;48.390;10.856;2024-02-23T04:59:37;1.17;;;0.40;;
42000;SDS011;27689;48.390;10.856;2024-02-23T05:02:21;1.08;;;0.30;;
42000;SDS011;27689;48.390;10.856;2024-02-23T05:05:05;2.53;;;0.30;;
42000;SDS011;27689;48.390;10.856;2024-02-23T05:07:49;0.43;;;0.28;;
42000;SDS011;27689;48.390;10.856;2024-02-23T05:10:34;0.90;;;0.38;;
42000;SDS011;27689;48.390;10.856;2024-02-23T05:13:18;0.32;;;0.30;;
42000;SDS011;27689;48.390;10.856;2024-02-23T05:16:02;0.20;;;0.20;;
42000;SDS011;27689;48.390;10.856;2024-02-23T05:18:46;0.57;;;0.32;;
42000;SDS011;27689;48.390;10.856;2024-02-23T05:21:30;0.65;;;0.35;;
42000;SDS011;27689;48.390;10.856;2024-02-23T05:24:14;1.13;;;0.30;;
42000;SDS011;27689;48.390;10.856;2024-02-23T05:26:58;1.13;;;0.40;;
42000;SDS011;27689;48.390;10.856;2024-02-23T05:29:45;1.00;;;0.30;;
42000;SDS011;27689;48.390;10.856;2024-02-23T05:32:29;0.30;;;0.30;;
42000;SDS011;27689;48.390;10.856;2024-02-23T05:35:13;1.08;;;0.50;;
42000;SDS011;27689;48.390;10.856;2024-02-23T05:37:57;0.40;;;0.40;;
42000;SDS011;27689;48.390;10.856;2024-02-23T05:40:42;2.17;;;0.30;;
42000;SDS011;27689;48.390;10.856;2024-02-23T05:43:26;1.60;;;0.30;;
42000;SDS011;27689;48.390;10.856;2024-02-23T05:46:10;0.85;;;0.30;;
42000;SDS011;27689;48.390;10.856;2024-02-23T05:48:54;0.40;;;0.40;;
42000;SDS011;27689;48.390;10.856;2024-02-23T05:51:38;2.13;;;0.30;;
42000;SDS011;27689;48.390;10.856;2024-02-23T05:54:25;0.35;;;0.30;;
42000;SDS011;27689;48.390;10.856;2024-02-23T05:57:09;2.97;;;0.50;;
42000;SDS011;27689;48.390;10.856;2024-02-23T05:59:53;2.00;;;0.60;;
42000;SDS011;27689;48.390;10.856;2024-02-23T06:02:39;0.63;;;0.40;;
42000;SDS011;27689;48.390;10.856;2024-02-23T06:05:23;0.30;;;0.30;;
42000;SDS011;27689;48.390;10.856;2024-02-23T06:08:07;1.10;;;0.30;;
42000;SDS011;27689;48.390;10.856;2024-02-23T06:10:51;0.32;;;0.30;;
42000;SDS011;27689;48.390;10.856;2024-02-23T06:13:35;0.30;;;0.30;;
42000;SDS011;27689;48.390;10.856;2024-02-23T06:16:19;1.02;;;0.40;;
42000;SDS011;27689;48.390;10.856;2024-02-23T06:19:03;0.30;;;0.30;;
42000;SDS011;27689;48.390;10.856;2024-02-23T06:21:47;0.40;;;0.35;;
42000;SDS011;27689;48.390;10.856;2024-02-23T06:24:33;0.30;;;0.30;;
42000;SDS011;27689;48.390;10.856;2024-02-23T06:27:17;0.77;;;0.43;;
42000;SDS011;27689;48.390;10.856;2024-02-23T06:30:00;0.40;;;0.40;;
42000;SDS011;27689;48.390;10.856;2024-02-23T06:32:44;1.13;;;0.40;;
42000;SDS011;27689;48.390;10.856;2024-02-23T06:38:13;0.75;;;0.52;;
42000;SDS011;27689;48.390;10.856;2024-02-23T06:40:57;1.95;;;0.57;;
42000;SDS011;27689;48.390;10.856;2024-02-23T06:43:41;1.02;;;0.73;;
42000;SDS011;27689;48.390;10.856;2024-02-23T06:46:25;2.58;;;1.20;;
42000;SDS011;27689;48.390;10.856;2024-02-23T06:49:09;1.50;;;0.88;;
42000;SDS011;27689;48.390;10.856;2024-02-23T06:51:53;2.55;;;1.50;;
42000;SDS011;27689;48.390;10.856;2024-02-23T06:54:37;2.57;;;1.30;;
42000;SDS011;27689;48.390;10.856;2024-02-23T06:57:21;3.35;;;1.45;;
42000;SDS011;27689;48.390;10.856;2024-02-23T07:00:08;1.50;;;1.20;;
42000;SDS011;27689;48.390;10.856;2024-02-23T07:02:52;1.23;;;0.82;;
42000;SDS011;27689;48.390;10.856;2024-02-23T07:05:36;1.38;;;0.70;;
42000;SDS011;27689;48.390;10.856;2024-02-23T07:08:20;1.02;;;0.68;;
42000;SDS011;27689;48.390;10.856;2024-02-23T07:11:04;0.90;;;0.50;;
42000;SDS011;27689;48.390;10.856;2024-02-23T07:13:48;0.95;;;0.60;;
42000;SDS011;27689;48.390;10.856;2024-02-23T07:16:31;2.17;;;0.50;;
42000;SDS011;27689;48.390;10.856;2024-02-23T07:19:15;1.55;;;0.60;;
42000;SDS011;27689;48.390;10.856;2024-02-23T07:21:59;3.90;;;0.50;;
42000;SDS011;27689;48.390;10.856;2024-02-23T07:24:43;0.90;;;0.40;;
42000;SDS011;27689;48.390;10.856;2024-02-23T07:27:28;0.88;;;0.47;;
42000;SDS011;27689;48.390;10.856;2024-02-23T07:30:13;0.98;;;0.52;;
42000;SDS011;27689;48.390;10.856;2024-02-23T07:35:41;0.65;;;0.65;;
42000;SDS011;27689;48.390;10.856;2024-02-23T07:38:26;1.50;;;0.70;;
42000;SDS011;27689;48.390;10.856;2024-02-23T07:41:11;4.22;;;0.95;;
42000;SDS011;27689;48.390;10.856;2024-02-23T07:43:56;1.30;;;0.80;;
42000;SDS011;27689;48.390;10.856;2024-02-23T07:46:40;2.35;;;0.80;;
42000;SDS011;27689;48.390;10.856;2024-02-23T07:52:12;2.60;;;0.88;;
42000;SDS011;27689;48.390;10.856;2024-02-23T07:54:56;1.98;;;0.85;;
42000;SDS011;27689;48.390;10.856;2024-02-23T07:57:40;2.85;;;1.00;;
42000;SDS011;27689;48.390;10.856;2024-02-23T08:00:24;1.52;;;0.80;;
42000;SDS011;27689;48.390;10.856;2024-02-23T08:03:07;2.65;;;0.98;;
42000;SDS011;27689;48.390;10.856;2024-02-23T08:05:52;2.03;;;0.70;;
42000;SDS011;27689;48.390;10.856;2024-02-23T08:08:36;2.37;;;0.90;;
42000;SDS011;27689;48.390;10.856;2024-02-23T08:11:20;2.05;;;0.93;;
42000;SDS011;27689;48.390;10.856;2024-02-23T08:14:03;2.03;;;1.05;;
42000;SDS011;27689;48.390;10.856;2024-02-23T08:16:48;3.92;;;1.17;;
42000;SDS011;27689;48.390;10.856;2024-02-23T08:19:33;3.15;;;1.05;;
42000;SDS011;27689;48.390;10.856;2024-02-23T08:22:16;1.27;;;0.90;;
42000;SDS011;27689;48.390;10.856;2024-02-23T08:25:00;2.83;;;1.00;;
42000;SDS011;27689;48.390;10.856;2024-02-23T08:27:44;4.80;;;1.10;;
42000;SDS011;27689;48.390;10.856;2024-02-23T08:30:28;2.10;;;0.80;;
42000;SDS011;27689;48.390;10.856;2024-02-23T08:33:12;2.13;;;0.77;;
42000;SDS011;27689;48.390;10.856;2024-02-23T08:35:56;3.20;;;0.80;;
42000;SDS011;27689;48.390;10.856;2024-02-23T08:38:40;2.92;;;0.75;;
42000;SDS011;27689;48.390;10.856;2024-02-23T08:41:24;1.97;;;0.70;;
42000;SDS011;27689;48.390;10.856;2024-02-23T08:44:08;1.35;;;0.90;;
42000;SDS011;27689;48.390;10.856;2024-02-23T08:46:52;2.03;;;0.95;;
42000;SDS011;27689;48.390;10.856;2024-02-23T08:49:35;2.97;;;0.80;;
42000;SDS011;27689;48.390;10.856;2024-02-23T08:52:20;0.73;;;0.55;;
42000;SDS011;27689;48.390;10.856;2024-02-23T08:55:04;1.90;;;0.68;;
42000;SDS011;27689;48.390;10.856;2024-02-23T08:57:49;2.25;;;0.80;;
42000;SDS011;27689;48.390;10.856;2024-02-23T09:00:33;3.53;;;1.02;;
42000;SDS011;27689;48.390;10.856;2024-02-23T09:03:17;2.60;;;0.70;;
42000;SDS011;27689;48.390;10.856;2024-02-23T09:06:01;2.73;;;0.60;;
42000;SDS011;27689;48.390;10.856;2024-02-23T09:08:45;4.00;;;1.00;;
42000;SDS011;27689;48.390;10.856;2024-02-23T09:11:29;0.98;;;0.60;;
42000;SDS011;27689;48.390;10.856;2024-02-23T09:14:13;1.77;;;0.60;;
42000;SDS011;27689;48.390;10.856;2024-02-23T09:16:57;3.57;;;0.80;;
42000;SDS011;27689;48.390;10.856;2024-02-23T09:19:40;1.58;;;0.73;;
42000;SDS011;27689;48.390;10.856;2024-02-23T09:22:24;4.85;;;0.85;;
42000;SDS011;27689;48.390;10.856;2024-02-23T09:25:08;2.25;;;0.70;;
42000;SDS011;27689;48.390;10.856;2024-02-23T09:27:56;2.22;;;0.57;;
42000;SDS011;27689;48.390;10.856;2024-02-23T09:30:40;3.00;;;0.90;;
42000;SDS011;27689;48.390;10.856;2024-02-23T09:33:24;2.80;;;0.77;;
42000;SDS011;27689;48.390;10.856;2024-02-23T09:36:08;3.90;;;0.80;;
42000;SDS011;27689;48.390;10.856;2024-02-23T09:38:53;2.50;;;0.70;;
42000;SDS011;27689;48.390;10.856;2024-02-23T09:41:37;2.50;;;0.80;;
42000;SDS011;27689;48.390;10.856;2024-02-23T09:44:23;2.80;;;0.80;;
42000;SDS011;27689;48.390;10.856;2024-02-23T09:47:07;2.33;;;0.77;;
42000;SDS011;27689;48.390;10.856;2024-02-23T09:49:53;3.08;;;0.80;;
42000;SDS011;27689;48.390;10.856;2024-02-23T09:52:38;2.95;;;0.93;;
42000;SDS011;27689;48.390;10.856;2024-02-23T09:55:22;3.45;;;0.70;;
42000;SDS011;27689;48.390;10.856;2024-02-23T09:58:06;2.90;;;0.98;;
42000;SDS011;27689;48.390;10.856;2024-02-23T10:00:52;2.92;;;0.95;;
42000;SDS011;27689;48.390;10.856;2024-02-23T10:06:21;2.72;;;0.88;;
42000;SDS011;27689;48.390;10.856;2024-02-23T10:09:05;1.47;;;0.77;;
42000;SDS011;27689;48.390;10.856;2024-02-23T10:11:52;3.30;;;0.88;;
42000;SDS011;27689;48.390;10.856;2024-02-23T10:14:37;1.42;;;0.80;;
42000;SDS011;27689;48.390;10.856;2024-02-23T10:17:21;3.65;;;0.95;;
42000;SDS011;27689;48.390;10.856;2024-02-23T10:20:05;2.38;;;0.90;;
42000;SDS011;27689;48.390;10.856;2024-02-23T10:22:50;1.15;;;0.50;;
42000;SDS011;27689;48.390;10.856;2024-02-23T10:25:34;4.07;;;1.38;;
42000;SDS011;27689;48.390;10.856;2024-02-23T10:28:19;3.45;;;0.98;;
42000;SDS011;27689;48.390;10.856;2024-02-23T10:31:06;3.25;;;1.13;;
42000;SDS011;27689;48.390;10.856;2024-02-23T10:33:50;1.65;;;0.80;;
42000;SDS011;27689;48.390;10.856;2024-02-23T10:36:36;9.55;;;1.33;;
42000;SDS011;27689;48.390;10.856;2024-02-23T10:39:24;4.10;;;0.90;;
42000;SDS011;27689;48.390;10.856;2024-02-23T10:42:13;3.28;;;0.80;;
42000;SDS011;27689;48.390;10.856;2024-02-23T10:44:58;2.47;;;0.90;;
42000;SDS011;27689;48.390;10.856;2024-02-23T10:47:45;2.58;;;0.70;;
42000;SDS011;27689;48.390;10.856;2024-02-23T10:50:31;3.13;;;0.77;;
42000;SDS011;27689;48.390;10.856;2024-02-23T10:53:16;1.92;;;0.70;;
42000;SDS011;27689;48.390;10.856;2024-02-23T10:56:03;2.70;;;0.90;;
42000;SDS011;27689;48.390;10.856;2024-02-23T10:58:49;2.63;;;0.80;;
42000;SDS011;27689;48.390;10.856;2024-02-23T11:01:33;3.73;;;0.93;;
42000;SDS011;27689;48.390;10.856;2024-02-23T11:04:19;2.15;;;0.60;;
42000;SDS011;27689;48.390;10.856;2024-02-23T11:07:12;2.67;;;0.80;;
42000;SDS011;27689;48.390;10.856;2024-02-23T11:10:00;4.75;;;1.25;;
42000;SDS011;27689;48.390;10.856;2024-02-23T11:12:44;7.75;;;1.15;;
42000;SDS011;27689;48.390;10.856;2024-02-23T11:15:28;4.75;;;0.80;;
42000;SDS011;27689;48.390;10.856;2024-02-23T11:18:27;5.15;;;0.73;;
42000;SDS011;27689;48.390;10.856;2024-02-23T11:21:11;4.75;;;0.80;;
42000;SDS011;27689;48.390;10.856;2024-02-23T11:23:55;2.72;;;0.70;;
42000;SDS011;27689;48.390;10.856;2024-02-23T11:26:39;5.68;;;0.90;;
42000;SDS011;27689;48.390;10.856;2024-02-23T11:29:25;2.42;;;0.70;;
42000;SDS011;27689;48.390;10.856;2024-02-23T11:32:14;1.80;;;1.10;;
42000;SDS011;27689;48.390;10.856;2024-02-23T11:35:01;5.07;;;1.08;;
42000;SDS011;27689;48.390;10.856;2024-02-23T11:37:52;3.38;;;0.65;;
42000;SDS011;27689;48.390;10.856;2024-02-23T11:40:46;5.45;;;0.77;;
42000;SDS011;27689;48.390;10.856;2024-02-23T11:43:33;1.88;;;0.80;;
42000;SDS011;27689;48.390;10.856;2024-02-23T11:46:18;2.72;;;0.93;;
42000;SDS011;27689;48.390;10.856;2024-02-23T11:49:03;3.05;;;0.90;;
42000;SDS011;27689;48.390;10.856;2024-02-23T11:51:47;2.40;;;0.77;;
42000;SDS011;27689;48.390;10.856;2024-02-23T11:54:31;10.40;;;0.90;;
42000;SDS011;27689;48.390;10.856;2024-02-23T11:57:15;3.60;;;0.60;;
42000;SDS011;27689;48.390;10.856;2024-02-23T12:00:00;2.73;;;0.63;;
42000;SDS011;27689;48.390;10.856;2024-02-23T12:02:45;4.78;;;0.88;;
42000;SDS011;27689;48.390;10.856;2024-02-23T12:05:32;2.72;;;0.70;;
42000;SDS011;27689;48.390;10.856;2024-02-23T12:08:16;2.55;;;0.70;;
42000;SDS011;27689;48.390;10.856;2024-02-23T12:11:00;7.90;;;1.13;;
42000;SDS011;27689;48.390;10.856;2024-02-23T12:13:44;4.60;;;0.65;;
42000;SDS011;27689;48.390;10.856;2024-02-23T12:16:29;8.07;;;1.13;;
42000;SDS011;27689;48.390;10.856;2024-02-23T12:19:14;3.15;;;0.80;;
42000;SDS011;27689;48.390;10.856;2024-02-23T12:24:45;3.95;;;1.20;;
42000;SDS011;27689;48.390;10.856;2024-02-23T12:27:29;4.00;;;1.30;;
42000;SDS011;27689;48.390;10.856;2024-02-23T12:30:13;3.07;;;0.93;;
42000;SDS011;27689;48.390;10.856;2024-02-23T12:33:05;4.78;;;1.20;;
42000;SDS011;27689;48.390;10.856;2024-02-23T12:35:53;6.90;;;1.38;;
42000;SDS011;27689;48.390;10.856;2024-02-23T12:38:37;3.80;;;1.33;;
42000;SDS011;27689;48.390;10.856;2024-02-23T12:41:21;3.17;;;1.00;;
42000;SDS011;27689;48.390;10.856;2024-02-23T12:44:07;6.45;;;1.13;;
42000;SDS011;27689;48.390;10.856;2024-02-23T12:46:51;2.90;;;1.10;;
42000;SDS011;27689;48.390;10.856;2024-02-23T12:49:35;5.18;;;1.20;;
42000;SDS011;27689;48.390;10.856;2024-02-23T12:52:19;2.65;;;1.10;;
42000;SDS011;27689;48.390;10.856;2024-02-23T12:55:04;4.95;;;1.10;;
42000;SDS011;27689;48.390;10.856;2024-02-23T12:57:47;3.22;;;1.00;;
42000;SDS011;27689;48.390;10.856;2024-02-23T13:00:31;3.37;;;1.10;;
42000;SDS011;27689;48.390;10.856;2024-02-23T13:03:15;2.67;;;1.10;;
42000;SDS011;27689;48.390;10.856;2024-02-23T13:05:59;5.50;;;1.03;;
42000;SDS011;27689;48.390;10.856;2024-02-23T13:08:43;1.10;;;0.77;;
42000;SDS011;27689;48.390;10.856;2024-02-23T13:11:27;2.75;;;0.98;;
42000;SDS011;27689;48.390;10.856;2024-02-23T13:14:11;2.35;;;0.95;;
42000;SDS011;27689;48.390;10.856;2024-02-23T13:16:55;3.23;;;0.77;;
42000;SDS011;27689;48.390;10.856;2024-02-23T13:19:39;0.90;;;0.77;;
42000;SDS011;27689;48.390;10.856;2024-02-23T13:22:23;1.83;;;0.88;;
42000;SDS011;27689;48.390;10.856;2024-02-23T13:25:07;3.33;;;0.90;;
42000;SDS011;27689;48.390;10.856;2024-02-23T13:27:51;3.00;;;0.82;;
42000;SDS011;27689;48.390;10.856;2024-02-23T13:30:35;3.78;;;0.98;;
42000;SDS011;27689;48.390;10.856;2024-02-23T13:33:20;3.42;;;0.88;;
42000;SDS011;27689;48.390;10.856;2024-02-23T13:36:05;3.05;;;0.70;;
42000;SDS011;27689;48.390;10.856;2024-02-23T13:38:50;1.23;;;0.77;;
42000;SDS011;27689;48.390;10.856;2024-02-23T13:41:34;1.55;;;0.70;;
42000;SDS011;27689;48.390;10.856;2024-02-23T13:44:18;1.97;;;0.90;;
42000;SDS011;27689;48.390;10.856;2024-02-23T13:47:02;1.63;;;1.10;;
42000;SDS011;27689;48.390;10.856;2024-02-23T13:49:46;1.55;;;0.90;;
42000;SDS011;27689;48.390;10.856;2024-02-23T13:52:30;3.87;;;1.00;;
42000;SDS011;27689;48.390;10.856;2024-02-23T13:55:14;2.93;;;0.83;;
42000;SDS011;27689;48.390;10.856;2024-02-23T13:57:58;2.03;;;0.82;;
42000;SDS011;27689;48.390;10.856;2024-02-23T14:00:42;2.60;;;0.70;;
42000;SDS011;27689;48.390;10.856;2024-02-23T14:03:25;1.42;;;0.90;;
42000;SDS011;27689;48.390;10.856;2024-02-23T14:06:09;2.58;;;0.75;;
42000;SDS011;27689;48.390;10.856;2024-02-23T14:08:53;1.75;;;0.95;;
42000;SDS011;27689;48.390;10.856;2024-02-23T14:11:37;2.78;;;0.98;;
42000;SDS011;27689;48.390;10.856;2024-02-23T14:14:23;2.45;;;0.77;;
42000;SDS011;27689;48.390;10.856;2024-02-23T14:17:07;1.80;;;0.60;;
42000;SDS011;27689;48.390;10.856;2024-02-23T14:19:52;1.60;;;0.80;;
42000;SDS011;27689;48.390;10.856;2024-02-23T14:22:36;0.85;;;0.70;;
42000;SDS011;27689;48.390;10.856;2024-02-23T14:25:20;2.88;;;0.68;;
42000;SDS011;27689;48.390;10.856;2024-02-23T14:28:04;2.92;;;1.10;;
42000;SDS011;27689;48.390;10.856;2024-02-23T14:30:48;0.98;;;0.80;;
42000;SDS011;27689;48.390;10.856;2024-02-23T14:33:32;1.33;;;0.77;;
42000;SDS011;27689;48.390;10.856;2024-02-23T14:36:16;2.20;;;1.10;;
42000;SDS011;27689;48.390;10.856;2024-02-23T14:39:01;5.50;;;1.17;;
42000;SDS011;27689;48.390;10.856;2024-02-23T14:41:46;4.00;;;1.25;;
42000;SDS011;27689;48.390;10.856;2024-02-23T14:44:30;2.50;;;1.33;;
42000;SDS011;27689;48.390;10.856;2024-02-23T14:47:13;2.40;;;1.10;;
42000;SDS011;27689;48.390;10.856;2024-02-23T14:49:57;1.00;;;0.80;;
42000;SDS011;27689;48.390;10.856;2024-02-23T14:52:41;1.35;;;0.70;;
42000;SDS011;27689;48.390;10.856;2024-02-23T14:55:28;4.82;;;0.90;;
42000;SDS011;27689;48.390;10.856;2024-02-23T14:58:12;2.75;;;0.70;;
42000;SDS011;27689;48.390;10.856;2024-02-23T15:00:56;1.55;;;1.00;;
42000;SDS011;27689;48.390;10.856;2024-02-23T15:03:40;1.73;;;0.82;;
42000;SDS011;27689;48.390;10.856;2024-02-23T15:06:24;4.03;;;0.90;;
42000;SDS011;27689;48.390;10.856;2024-02-23T15:09:08;2.60;;;1.10;;
42000;SDS011;27689;48.390;10.856;2024-02-23T15:11:52;2.15;;;0.93;;
42000;SDS011;27689;48.390;10.856;2024-02-23T15:14:36;1.75;;;0.60;;
42000;SDS011;27689;48.390;10.856;2024-02-23T15:17:20;2.13;;;0.57;;
42000;SDS011;27689;48.390;10.856;2024-02-23T15:20:04;1.60;;;0.68;;
42000;SDS011;27689;48.390;10.856;2024-02-23T15:22:48;1.83;;;0.82;;
42000;SDS011;27689;48.390;10.856;2024-02-23T15:25:33;6.25;;;1.10;;
42000;SDS011;27689;48.390;10.856;2024-02-23T15:28:18;2.95;;;0.80;;
42000;SDS011;27689;48.390;10.856;2024-02-23T15:31:06;0.82;;;0.68;;
42000;SDS011;27689;48.390;10.856;2024-02-23T15:33:50;2.13;;;0.90;;
42000;SDS011;27689;48.390;10.856;2024-02-23T15:36:34;1.10;;;0.80;;
42000;SDS011;27689;48.390;10.856;2024-02-23T15:39:18;1.40;;;0.70;;
42000;SDS011;27689;48.390;10.856;2024-02-23T15:42:02;1.83;;;0.83;;
42000;SDS011;27689;48.390;10.856;2024-02-23T15:44:46;1.15;;;0.73;;
42000;SDS011;27689;48.390;10.856;2024-02-23T15:47:31;4.50;;;0.82;;
42000;SDS011;27689;48.390;10.856;2024-02-23T15:50:15;0.88;;;0.82;;
42000;SDS011;27689;48.390;10.856;2024-02-23T15:52:59;0.98;;;0.70;;
42000;SDS011;27689;48.390;10.856;2024-02-23T15:55:43;5.57;;;0.85;;
42000;SDS011;27689;48.390;10.856;2024-02-23T15:58:27;0.85;;;0.57;;
42000;SDS011;27689;48.390;10.856;2024-02-23T16:01:11;2.33;;;0.80;;
42000;SDS011;27689;48.390;10.856;2024-02-23T16:03:55;1.00;;;0.80;;
42000;SDS011;27689;48.390;10.856;2024-02-23T16:06:39;3.60;;;0.93;;
42000;SDS011;27689;48.390;10.856;2024-02-23T16:09:23;2.55;;;0.65;;
42000;SDS011;27689;48.390;10.856;2024-02-23T16:12:07;1.58;;;0.88;;
42000;SDS011;27689;48.390;10.856;2024-02-23T16:14:50;1.63;;;0.80;;
42000;SDS011;27689;48.390;10.856;2024-02-23T16:17:34;1.17;;;0.70;;
42000;SDS011;27689;48.390;10.856;2024-02-23T16:20:20;1.60;;;0.90;;
42000;SDS011;27689;48.390;10.856;2024-02-23T16:23:04;2.70;;;0.88;;
42000;SDS011;27689;48.390;10.856;2024-02-23T16:25:48;1.83;;;0.90;;
42000;SDS011;27689;48.390;10.856;2024-02-23T16:28:32;1.60;;;0.90;;
42000;SDS011;27689;48.390;10.856;2024-02-23T16:31:16;3.08;;;1.13;;
42000;SDS011;27689;48.390;10.856;2024-02-23T16:34:00;1.92;;;0.80;;
42000;SDS011;27689;48.390;10.856;2024-02-23T16:36:44;2.27;;;1.00;;